createdAt,value
2023-01-15T00:01:06.026Z,8.80
2023-01-15T00:46:02.433Z,9.40
2023-01-15T00:48:31.917Z,9.50
2023-01-15T00:50:59.889Z,9.50
2023-01-15T00:57:21.292Z,9.60
2023-01-15T00:59:49.208Z,9.60
2023-01-15T01:02:20.216Z,9.60
2023-01-15T01:04:49.504Z,9.70
2023-01-15T01:07:18.382Z,9.70
2023-01-15T01:09:46.361Z,9.80
2023-01-15T01:12:14.266Z,9.80
2023-01-15T01:14:43.200Z,9.90
2023-01-15T01:17:11.098Z,9.90
2023-01-15T01:19:39.050Z,9.90
2023-01-15T01:22:08.318Z,10.00
2023-01-15T01:24:36.231Z,10.00
2023-01-15T01:27:04.142Z,10.10
2023-01-15T01:29:32.096Z,10.10
2023-01-15T01:32:00.290Z,10.10
2023-01-15T01:45:15.604Z,10.20
2023-01-15T01:59:15.775Z,10.20
2023-01-15T02:01:40.501Z,10.20
2023-01-15T02:04:10.451Z,10.30
2023-01-15T02:06:40.364Z,10.30
2023-01-15T02:09:08.500Z,10.40
2023-01-15T02:11:37.874Z,10.40
2023-01-15T02:14:57.852Z,10.30
2023-01-15T02:24:41.840Z,10.40
2023-01-15T02:27:59.444Z,10.40
2023-01-15T02:31:05.171Z,10.30
2023-01-15T02:33:52.304Z,10.40
2023-01-15T02:37:10.843Z,10.40
2023-01-15T02:40:12.476Z,10.40
2023-01-15T02:43:12.327Z,10.40
2023-01-15T02:45:55.502Z,10.40
2023-01-15T02:52:15.682Z,10.40
2023-01-15T02:55:41.310Z,10.40
2023-01-15T02:58:55.139Z,10.40
2023-01-15T03:02:02.550Z,10.40
2023-01-15T03:05:11.389Z,10.50
2023-01-15T03:08:27.818Z,10.50
2023-01-15T03:11:26.349Z,10.50
2023-01-15T03:14:26.169Z,10.50
2023-01-15T03:17:42.350Z,10.50
2023-01-15T03:20:46.576Z,10.60
2023-01-15T03:23:34.341Z,10.50
2023-01-15T03:26:29.948Z,10.60
2023-01-15T03:29:08.278Z,10.50
2023-01-15T03:32:11.263Z,10.50
2023-01-15T03:35:06.127Z,10.60
2023-01-15T03:37:53.318Z,10.60
2023-01-15T03:44:11.991Z,10.70
2023-01-15T03:47:12.668Z,10.70
2023-01-15T03:50:31.689Z,10.70
2023-01-15T03:53:48.623Z,10.70
2023-01-15T03:56:53.433Z,10.80
2023-01-15T04:04:03.593Z,10.80
2023-01-15T04:07:23.177Z,10.70
2023-01-15T04:13:23.297Z,10.70
2023-01-15T04:16:36.591Z,10.60
2023-01-15T04:20:08.308Z,10.60
2023-01-15T04:23:18.434Z,10.50
2023-01-15T04:26:10.261Z,10.50
2023-01-15T04:28:48.748Z,10.50
2023-01-15T04:31:36.989Z,10.50
2023-01-15T04:34:30.214Z,10.50
2023-01-15T04:37:27.482Z,10.50
2023-01-15T04:40:22.405Z,10.50
2023-01-15T04:43:19.191Z,10.50
2023-01-15T04:45:58.210Z,10.50
2023-01-15T04:48:47.416Z,10.50
2023-01-15T04:54:35.772Z,10.50
2023-01-15T04:57:17.784Z,10.50
2023-01-15T05:00:12.524Z,10.40
2023-01-15T05:03:00.541Z,10.50
2023-01-15T05:06:05.825Z,10.50
2023-01-15T05:08:50.665Z,10.40
2023-01-15T05:11:46.784Z,10.40
2023-01-15T05:17:39.251Z,10.40
2023-01-15T05:20:15.221Z,10.40
2023-01-15T05:22:55.861Z,10.40
2023-01-15T05:25:30.490Z,10.40
2023-01-15T05:28:04.086Z,10.40
2023-01-15T05:30:40.131Z,10.50
2023-01-15T05:33:14.289Z,10.50
2023-01-15T05:36:00.233Z,10.50
2023-01-15T05:38:51.881Z,10.50
2023-01-15T05:41:44.143Z,10.40
2023-01-15T05:44:32.718Z,10.50
2023-01-15T05:47:13.556Z,10.60
2023-01-15T05:49:47.574Z,10.60
2023-01-15T05:52:25.316Z,10.70
2023-01-15T05:55:09.202Z,10.60
2023-01-15T05:57:50.851Z,10.60
2023-01-15T06:00:43.260Z,10.70
2023-01-15T06:03:41.929Z,10.70
2023-01-15T06:06:47.206Z,10.80
2023-01-15T06:09:55.054Z,10.80
2023-01-15T06:13:09.323Z,10.80
2023-01-15T06:16:02.312Z,10.70
2023-01-15T06:18:51.120Z,10.70
2023-01-15T06:21:30.086Z,10.60
2023-01-15T06:24:05.330Z,10.50
2023-01-15T06:26:46.164Z,10.40
2023-01-15T06:29:18.903Z,10.40
2023-01-15T06:35:15.475Z,10.40
2023-01-15T06:38:07.375Z,10.30
2023-01-15T06:40:53.434Z,10.10
2023-01-15T06:54:22.289Z,9.70
2023-01-15T06:57:30.150Z,9.50
2023-01-15T07:00:23.486Z,9.40
2023-01-15T07:03:39.000Z,9.20
2023-01-15T07:07:42.833Z,9.20
2023-01-15T08:03:34.586Z,8.40
2023-01-15T08:06:02.566Z,8.30
2023-01-15T08:08:30.552Z,8.30
2023-01-15T08:11:20.193Z,8.30
2023-01-15T08:14:05.848Z,8.20
2023-01-15T08:16:36.905Z,8.20
2023-01-15T08:19:06.189Z,8.20
2023-01-15T08:21:34.125Z,8.10
2023-01-15T08:24:02.151Z,8.00
2023-01-15T08:26:30.097Z,7.90
2023-01-15T08:28:59.515Z,7.80
2023-01-15T08:31:27.501Z,7.70
2023-01-15T08:33:55.477Z,7.60
2023-01-15T08:36:24.824Z,7.70
2023-01-15T08:38:52.798Z,7.50
2023-01-15T08:41:20.678Z,7.40
2023-01-15T08:43:48.726Z,7.30
2023-01-15T08:46:16.673Z,7.30
2023-01-15T08:48:45.010Z,7.20
2023-01-15T08:51:13.385Z,7.20
2023-01-15T08:53:43.011Z,7.10
2023-01-15T08:56:14.446Z,7.10
2023-01-15T08:58:42.623Z,7.00
2023-01-15T09:01:15.811Z,7.10
2023-01-15T09:03:44.565Z,7.10
2023-01-15T09:06:13.549Z,7.20
2023-01-15T09:08:42.863Z,7.20
2023-01-15T09:11:13.030Z,7.20
2023-01-15T09:13:42.915Z,7.30
2023-01-15T09:16:12.121Z,7.40
2023-01-15T09:18:41.581Z,7.50
2023-01-15T09:21:09.480Z,7.40
2023-01-15T09:23:37.505Z,7.40
2023-01-15T09:26:08.076Z,7.40
2023-01-15T09:28:36.813Z,7.50
2023-01-15T09:31:04.875Z,7.40
2023-01-15T09:33:32.827Z,7.50
2023-01-15T09:36:00.724Z,7.40
2023-01-15T09:38:28.616Z,7.60
2023-01-15T09:40:58.551Z,7.60
2023-01-15T09:43:50.059Z,7.60
2023-01-15T09:46:23.733Z,7.60
2023-01-15T09:48:57.448Z,7.60
2023-01-15T09:51:31.343Z,7.60
2023-01-15T09:54:25.191Z,7.50
2023-01-15T09:56:54.651Z,7.50
2023-01-15T09:59:34.721Z,7.50
2023-01-15T10:02:12.895Z,7.50
2023-01-15T10:04:45.040Z,7.60
2023-01-15T10:07:19.340Z,7.60
2023-01-15T10:09:52.137Z,7.70
2023-01-15T10:12:39.937Z,7.70
2023-01-15T10:15:19.722Z,7.60
2023-01-15T10:17:49.021Z,7.70
2023-01-15T10:20:24.475Z,7.70
2023-01-15T10:23:25.578Z,7.60
2023-01-15T10:26:01.372Z,7.50
2023-01-15T10:28:32.161Z,7.60
2023-01-15T10:31:07.324Z,7.50
2023-01-15T10:33:56.248Z,7.50
2023-01-15T10:36:29.269Z,7.50
2023-01-15T10:39:07.356Z,7.60
2023-01-15T10:41:46.866Z,7.60
2023-01-15T10:44:20.662Z,7.60
2023-01-15T10:46:56.109Z,7.70
2023-01-15T10:49:30.096Z,7.70
2023-01-15T10:52:03.922Z,7.80
2023-01-15T10:54:38.055Z,7.70
2023-01-15T10:57:12.384Z,7.80
2023-01-15T10:59:47.721Z,7.90
2023-01-15T11:02:28.233Z,8.00
2023-01-15T11:04:57.267Z,8.10
2023-01-15T11:07:32.369Z,8.10
2023-01-15T11:10:05.450Z,8.10
2023-01-15T11:12:51.254Z,8.20
2023-01-15T11:15:42.888Z,8.20
2023-01-15T11:18:38.328Z,8.20
2023-01-15T11:21:13.217Z,8.10
2023-01-15T11:23:41.482Z,8.10
2023-01-15T11:26:10.811Z,8.10
2023-01-15T11:28:41.515Z,8.10
2023-01-15T11:31:10.419Z,8.10
2023-01-15T11:33:40.348Z,8.10
2023-01-15T11:36:21.709Z,8.10
2023-01-15T11:38:51.517Z,8.10
2023-01-15T11:41:50.439Z,8.10
2023-01-15T11:44:36.765Z,8.10
2023-01-15T11:47:28.799Z,8.10
2023-01-15T11:50:24.382Z,8.10
2023-01-15T11:52:57.300Z,8.10
2023-01-15T11:55:28.438Z,8.20
2023-01-15T11:57:58.443Z,8.20
2023-01-15T12:00:30.408Z,8.30
2023-01-15T12:03:04.563Z,8.30
2023-01-15T12:05:36.805Z,8.40
2023-01-15T12:08:17.864Z,8.40
2023-01-15T12:11:25.239Z,8.40
2023-01-15T12:14:02.315Z,8.40
2023-01-15T12:16:40.656Z,8.40
2023-01-15T12:19:16.505Z,8.30
2023-01-15T12:22:06.596Z,8.20
2023-01-15T12:25:01.349Z,8.00
2023-01-15T12:27:42.459Z,7.90
2023-01-15T12:30:22.571Z,7.80
2023-01-15T12:32:59.251Z,7.80
2023-01-15T12:35:37.187Z,7.80
2023-01-15T12:38:16.505Z,7.80
2023-01-15T12:40:49.389Z,7.80
2023-01-15T12:43:42.250Z,7.80
2023-01-15T12:46:15.253Z,7.80
2023-01-15T12:48:51.388Z,7.70
2023-01-15T12:51:49.476Z,7.60
2023-01-15T12:54:28.689Z,7.50
2023-01-15T12:57:27.891Z,7.40
2023-01-15T13:00:00.200Z,7.40
2023-01-15T13:02:37.395Z,7.30
2023-01-15T13:05:17.738Z,7.20
2023-01-15T13:07:54.477Z,7.10
2023-01-15T13:10:26.201Z,7.00
2023-01-15T13:12:57.007Z,7.00
2023-01-15T13:15:31.314Z,7.00
2023-01-15T13:18:05.454Z,7.00
2023-01-15T13:20:41.934Z,7.00
2023-01-15T13:23:19.760Z,6.90
2023-01-15T13:26:07.323Z,6.90
2023-01-15T13:28:59.607Z,6.90
2023-01-15T13:31:48.300Z,6.80
2023-01-15T13:34:25.454Z,6.70
2023-01-15T13:36:56.483Z,6.60
2023-01-15T13:39:29.241Z,6.70
2023-01-15T13:42:16.560Z,6.60
2023-01-15T13:44:50.601Z,6.60
2023-01-15T13:47:23.622Z,6.60
2023-01-15T13:49:54.403Z,6.60
2023-01-15T13:52:27.573Z,6.60
2023-01-15T13:54:57.854Z,6.70
2023-01-15T13:57:34.465Z,6.80
2023-01-15T14:00:04.384Z,6.90
2023-01-15T14:02:34.629Z,6.90
2023-01-15T14:05:24.931Z,6.90
2023-01-15T14:07:52.815Z,6.90
2023-01-15T14:10:35.579Z,6.90
2023-01-15T14:13:20.863Z,6.90
2023-01-15T14:15:55.971Z,7.00
2023-01-15T14:18:56.958Z,7.00
2023-01-15T14:21:32.517Z,7.00
2023-01-15T14:24:15.991Z,7.00
2023-01-15T14:26:55.942Z,6.90
2023-01-15T14:29:57.145Z,6.90
2023-01-15T14:32:44.997Z,6.90
2023-01-15T14:35:15.877Z,6.90
2023-01-15T14:37:50.414Z,6.80
2023-01-15T14:40:24.355Z,6.70
2023-01-15T14:43:02.633Z,6.70
2023-01-15T14:45:34.009Z,6.70
2023-01-15T14:48:03.601Z,6.70
2023-01-15T14:50:39.327Z,6.70
2023-01-15T14:53:23.526Z,6.60
2023-01-15T14:55:54.625Z,6.50
2023-01-15T14:58:35.555Z,6.50
2023-01-15T15:01:15.336Z,6.50
2023-01-15T15:03:52.561Z,6.50
2023-01-15T15:06:22.085Z,6.50
2023-01-15T15:08:51.473Z,6.50
2023-01-15T15:11:51.178Z,6.50
2023-01-15T15:14:21.305Z,6.70
2023-01-15T15:16:54.808Z,6.60
2023-01-15T15:19:29.375Z,6.60
2023-01-15T15:22:00.883Z,6.70
2023-01-15T15:24:32.365Z,6.70
2023-01-15T15:27:15.508Z,6.60
2023-01-15T15:29:43.537Z,6.50
2023-01-15T15:32:18.475Z,6.40
2023-01-15T15:34:51.183Z,6.20
2023-01-15T15:37:21.453Z,6.20
2023-01-15T15:39:54.500Z,6.10
2023-01-15T15:42:44.740Z,6.00
2023-01-15T15:45:32.435Z,5.90
2023-01-15T15:48:32.482Z,5.80
2023-01-15T15:51:01.067Z,5.70
2023-01-15T15:53:29.081Z,5.60
2023-01-15T15:55:58.568Z,5.50
2023-01-15T15:58:33.558Z,5.50
2023-01-15T16:01:02.781Z,5.50
2023-01-15T16:03:34.450Z,5.60
2023-01-15T16:06:04.763Z,5.60
2023-01-15T16:08:34.238Z,5.60
2023-01-15T16:11:05.345Z,5.60
2023-01-15T16:13:36.538Z,5.60
2023-01-15T16:16:08.221Z,5.60
2023-01-15T16:18:44.474Z,5.50
2023-01-15T16:21:19.896Z,5.40
2023-01-15T16:23:57.597Z,5.30
2023-01-15T16:26:33.555Z,5.20
2023-01-15T16:29:04.784Z,5.20
2023-01-15T16:31:36.817Z,5.10
2023-01-15T16:34:07.217Z,5.10
2023-01-15T16:36:40.430Z,5.10
2023-01-15T16:39:18.550Z,5.00
2023-01-15T16:41:46.526Z,5.00
2023-01-15T16:44:28.424Z,4.90
2023-01-15T16:47:00.469Z,4.90
2023-01-15T16:49:31.454Z,4.90
2023-01-15T16:52:01.094Z,4.90
2023-01-15T16:54:44.773Z,4.80
2023-01-15T16:57:35.911Z,4.80
2023-01-15T17:00:07.775Z,4.80
2023-01-15T17:02:45.177Z,4.80
2023-01-15T17:05:22.678Z,4.70
2023-01-15T17:07:54.130Z,4.70
2023-01-15T17:10:24.438Z,4.60
2023-01-15T17:12:55.019Z,4.50
2023-01-15T17:15:40.386Z,4.50
2023-01-15T17:18:29.098Z,4.50
2023-01-15T17:20:59.344Z,4.50
2023-01-15T17:23:31.057Z,4.50
2023-01-15T17:25:59.448Z,4.40
2023-01-15T17:28:27.552Z,4.40
2023-01-15T17:31:00.293Z,4.40
2023-01-15T17:33:28.293Z,4.40
2023-01-15T17:36:00.769Z,4.40
2023-01-15T17:38:28.944Z,4.30
2023-01-15T17:41:00.398Z,4.20
2023-01-15T17:43:28.444Z,4.20
2023-01-15T17:45:56.351Z,4.20
2023-01-15T17:48:24.344Z,4.10
2023-01-15T17:50:54.495Z,4.10
2023-01-15T17:53:24.031Z,4.10
2023-01-15T17:56:09.578Z,4.00
2023-01-15T17:58:55.258Z,4.00
2023-01-15T18:01:43.262Z,4.00
2023-01-15T18:04:36.150Z,4.00
2023-01-15T18:07:04.855Z,4.10
2023-01-15T18:09:35.251Z,4.00
2023-01-15T18:12:03.308Z,4.00
2023-01-15T18:14:31.300Z,3.90
2023-01-15T18:16:59.256Z,4.00
2023-01-15T18:19:27.269Z,4.00
2023-01-15T18:21:55.309Z,3.90
2023-01-15T18:24:23.733Z,3.90
2023-01-15T18:26:53.319Z,3.90
2023-01-15T18:29:21.405Z,3.90
2023-01-15T18:31:49.854Z,3.90
2023-01-15T18:34:17.829Z,3.90
2023-01-15T18:36:45.884Z,3.90
2023-01-15T18:39:13.910Z,3.90
2023-01-15T18:41:59.738Z,3.90
2023-01-15T18:44:46.502Z,3.90
2023-01-15T18:47:17.394Z,4.00
2023-01-15T18:49:46.707Z,3.90
2023-01-15T18:52:34.067Z,4.00
2023-01-15T18:55:02.108Z,4.00
2023-01-15T18:57:32.817Z,4.00
2023-01-15T19:00:02.152Z,4.00
2023-01-15T19:02:30.088Z,4.00
2023-01-15T19:04:58.032Z,4.00
2023-01-15T19:07:25.894Z,4.00
2023-01-15T19:09:55.263Z,4.00
2023-01-15T19:12:23.231Z,4.00
2023-01-15T19:15:08.797Z,4.00
2023-01-15T19:17:55.736Z,4.00
2023-01-15T19:20:23.653Z,4.00
2023-01-15T19:23:04.146Z,4.00
2023-01-15T19:25:39.084Z,4.00
2023-01-15T19:28:07.832Z,4.00
2023-01-15T19:30:37.418Z,4.00
2023-01-15T19:33:07.302Z,4.10
2023-01-15T19:35:37.443Z,4.00
2023-01-15T19:38:08.170Z,4.00
2023-01-15T19:40:40.480Z,4.00
2023-01-15T19:43:26.326Z,4.00
2023-01-15T19:46:12.049Z,4.00
2023-01-15T19:48:59.291Z,4.00
2023-01-15T19:51:47.753Z,4.00
2023-01-15T19:54:36.208Z,4.00
2023-01-15T19:57:04.269Z,4.00
2023-01-15T19:59:32.195Z,4.10
2023-01-15T20:02:02.478Z,4.00
2023-01-15T20:04:32.040Z,3.90
2023-01-15T20:06:59.948Z,4.00
2023-01-15T20:09:27.930Z,4.00
2023-01-15T20:12:13.456Z,4.00
2023-01-15T20:14:41.371Z,4.10
2023-01-15T20:17:11.323Z,4.10
2023-01-15T20:19:40.591Z,4.10
2023-01-15T20:22:08.676Z,4.10
2023-01-15T20:24:40.080Z,4.10
2023-01-15T20:27:09.697Z,4.10
2023-01-15T20:29:37.674Z,4.10
2023-01-15T20:32:06.109Z,4.10
2023-01-15T20:34:37.566Z,4.10
2023-01-15T20:37:06.924Z,4.00
2023-01-15T20:39:34.997Z,4.00
2023-01-15T20:42:20.381Z,4.00
2023-01-15T20:44:54.647Z,3.90
2023-01-15T20:47:41.426Z,3.80
2023-01-15T20:50:11.227Z,3.80
2023-01-15T20:52:43.460Z,3.70
2023-01-15T20:55:11.427Z,3.70
2023-01-15T20:57:41.512Z,3.60
2023-01-15T21:00:11.744Z,3.60
2023-01-15T21:02:39.804Z,3.50
2023-01-15T21:05:09.165Z,3.50
2023-01-15T21:07:38.033Z,3.40
2023-01-15T21:10:11.023Z,3.40
2023-01-15T21:12:39.137Z,3.40
2023-01-15T21:15:08.409Z,3.40
2023-01-15T21:17:37.491Z,3.40
2023-01-15T21:20:06.659Z,3.40
2023-01-15T21:22:34.803Z,3.40
2023-01-15T21:25:03.046Z,3.30
2023-01-15T21:27:33.204Z,3.30
2023-01-15T21:30:01.151Z,3.30
2023-01-15T21:32:29.144Z,3.30
2023-01-15T21:34:57.114Z,3.30
2023-01-15T21:37:25.054Z,3.30
2023-01-15T21:39:53.017Z,3.20
2023-01-15T21:42:40.875Z,3.20
2023-01-15T21:45:12.090Z,3.20
2023-01-15T21:47:41.661Z,3.20
2023-01-15T21:50:10.774Z,3.20
2023-01-15T21:52:38.704Z,3.20
2023-01-15T21:55:08.360Z,3.20
2023-01-15T21:57:36.442Z,3.20
2023-01-15T22:00:06.021Z,3.20
2023-01-15T22:02:36.045Z,3.20
2023-01-15T22:05:04.635Z,3.20
2023-01-15T22:07:32.662Z,3.10
2023-01-15T22:10:01.663Z,3.10
2023-01-15T22:12:29.650Z,3.10
2023-01-15T22:14:58.365Z,3.10
2023-01-15T22:17:26.361Z,3.10
2023-01-15T22:19:55.774Z,3.10
2023-01-15T22:22:26.322Z,3.10
2023-01-15T22:24:54.336Z,3.10
2023-01-15T22:27:22.356Z,3.20
2023-01-15T22:29:50.293Z,3.10
2023-01-15T22:32:18.322Z,3.10
2023-01-15T22:34:48.775Z,3.20
2023-01-15T22:37:18.126Z,3.20
2023-01-15T22:39:47.133Z,3.10
2023-01-15T22:42:28.346Z,3.10
2023-01-15T22:44:59.743Z,3.20
2023-01-15T22:47:28.630Z,3.10
2023-01-15T22:49:56.518Z,3.10
2023-01-15T22:52:26.336Z,3.10
2023-01-15T22:54:54.698Z,3.10
2023-01-15T22:57:23.558Z,3.10
2023-01-15T22:59:51.692Z,3.10
2023-01-15T23:02:41.337Z,3.10
2023-01-15T23:05:10.144Z,3.10
2023-01-15T23:07:41.360Z,3.10
2023-01-15T23:10:11.346Z,3.10
2023-01-15T23:12:40.327Z,3.10
2023-01-15T23:15:09.802Z,3.00
2023-01-15T23:17:37.685Z,3.00
2023-01-15T23:20:06.508Z,3.00
2023-01-15T23:22:34.391Z,2.90
2023-01-15T23:25:04.126Z,3.00
2023-01-15T23:27:32.487Z,2.90
2023-01-15T23:30:00.328Z,2.90
2023-01-15T23:32:28.226Z,2.90
2023-01-15T23:34:56.189Z,2.90
2023-01-15T23:37:24.117Z,2.90
2023-01-15T23:39:52.048Z,2.80
2023-01-15T23:42:39.205Z,2.80
2023-01-15T23:45:26.099Z,2.90
2023-01-15T23:47:54.021Z,2.90
2023-01-15T23:50:22.252Z,2.90
2023-01-15T23:52:50.162Z,2.80
2023-01-15T23:55:18.100Z,2.80
2023-01-15T23:57:47.355Z,2.70
